Crowell, Texas
Current Conditions -  °F | °C
As of 11:16 AM on Wednesday 26 Nov 2014 (Local Time) from KF05 Reporting Station
Clear Clear  
Wind Chill: 55°   Ceiling: Unl
Heat Index: 55°   Visibility: 10mi
Dew Point: 34°   Wind: 17mph
Humidity: 44%   Direction: 360°N
Pressure: 30.24"   Gusts: 22mph
Location:  33.98°N, 99.72°W
Report Text: KF05 261716Z AUTO 36015G19KT 10SM CLR 13/01 A3024 RMK AO2
Loading
Personal Weather Stations






























Interactive Weather Map New forecast layout! Learn more

10-Day Weather Forecast

Advertisements
Track Severe Weather on mobile